sensor_id;sensor_type;location;lat;lon;timestamp;temperature;humidity
22383;DHT22;11359;45.802;13.530;2023-02-28T00:01:17;13.80;29.80
22383;DHT22;11359;45.802;13.530;2023-02-28T00:03:42;13.70;29.70
22383;DHT22;11359;45.802;13.530;2023-02-28T00:06:08;13.70;29.70
22383;DHT22;11359;45.802;13.530;2023-02-28T00:08:35;13.60;29.80
22383;DHT22;11359;45.802;13.530;2023-02-28T00:11:07;13.60;29.80
22383;DHT22;11359;45.802;13.530;2023-02-28T00:13:35;13.50;29.90
22383;DHT22;11359;45.802;13.530;2023-02-28T00:16:06;13.50;29.90
22383;DHT22;11359;45.802;13.530;2023-02-28T00:18:32;13.40;30.00
22383;DHT22;11359;45.802;13.530;2023-02-28T00:20:59;13.40;30.00
22383;DHT22;11359;45.802;13.530;2023-02-28T00:23:25;13.30;30.00
22383;DHT22;11359;45.802;13.530;2023-02-28T00:25:51;13.30;30.10
22383;DHT22;11359;45.802;13.530;2023-02-28T00:28:17;13.30;30.20
22383;DHT22;11359;45.802;13.530;2023-02-28T00:30:44;13.20;30.20
22383;DHT22;11359;45.802;13.530;2023-02-28T00:33:10;13.20;30.20
22383;DHT22;11359;45.802;13.530;2023-02-28T00:35:36;13.20;30.30
22383;DHT22;11359;45.802;13.530;2023-02-28T00:38:01;13.10;31.10
22383;DHT22;11359;45.802;13.530;2023-02-28T00:40:28;13.10;30.50
22383;DHT22;11359;45.802;13.530;2023-02-28T00:42:54;13.10;30.60
22383;DHT22;11359;45.802;13.530;2023-02-28T00:45:20;13.00;30.60
22383;DHT22;11359;45.802;13.530;2023-02-28T00:47:46;13.00;30.60
22383;DHT22;11359;45.802;13.530;2023-02-28T00:50:19;13.00;30.70
22383;DHT22;11359;45.802;13.530;2023-02-28T00:52:46;12.90;30.60
22383;DHT22;11359;45.802;13.530;2023-02-28T00:55:12;12.90;30.70
22383;DHT22;11359;45.802;13.530;2023-02-28T00:57:38;12.90;30.90
22383;DHT22;11359;45.802;13.530;2023-02-28T01:00:04;12.80;30.90
22383;DHT22;11359;45.802;13.530;2023-02-28T01:02:30;12.80;31.00
22383;DHT22;11359;45.802;13.530;2023-02-28T01:04:56;12.70;31.00
22383;DHT22;11359;45.802;13.530;2023-02-28T01:07:23;12.70;31.10
22383;DHT22;11359;45.802;13.530;2023-02-28T01:09:49;12.70;31.20
22383;DHT22;11359;45.802;13.530;2023-02-28T01:12:14;12.60;31.20
22383;DHT22;11359;45.802;13.530;2023-02-28T01:14:40;12.60;31.30
22383;DHT22;11359;45.802;13.530;2023-02-28T01:17:06;12.60;31.30
22383;DHT22;11359;45.802;13.530;2023-02-28T01:19:32;12.50;31.30
22383;DHT22;11359;45.802;13.530;2023-02-28T01:22:01;12.50;31.40
22383;DHT22;11359;45.802;13.530;2023-02-28T01:24:28;12.40;31.40
22383;DHT22;11359;45.802;13.530;2023-02-28T01:26:53;12.40;31.50
22383;DHT22;11359;45.802;13.530;2023-02-28T01:29:20;12.40;31.70
22383;DHT22;11359;45.802;13.530;2023-02-28T01:31:45;12.30;31.70
22383;DHT22;11359;45.802;13.530;2023-02-28T01:34:11;12.30;31.70
22383;DHT22;11359;45.802;13.530;2023-02-28T01:36:37;12.20;31.80
22383;DHT22;11359;45.802;13.530;2023-02-28T01:39:03;12.20;31.90
22383;DHT22;11359;45.802;13.530;2023-02-28T01:41:31;12.10;31.90
22383;DHT22;11359;45.802;13.530;2023-02-28T01:44:07;12.10;32.10
22383;DHT22;11359;45.802;13.530;2023-02-28T01:46:51;12.10;32.10
22383;DHT22;11359;45.802;13.530;2023-02-28T01:49:18;12.00;32.20
22383;DHT22;11359;45.802;13.530;2023-02-28T01:51:48;12.00;32.30
22383;DHT22;11359;45.802;13.530;2023-02-28T01:54:30;12.00;32.30
22383;DHT22;11359;45.802;13.530;2023-02-28T01:57:10;12.00;32.40
22383;DHT22;11359;45.802;13.530;2023-02-28T01:59:59;12.00;32.50
22383;DHT22;11359;45.802;13.530;2023-02-28T02:02:27;11.90;32.50
22383;DHT22;11359;45.802;13.530;2023-02-28T02:04:58;11.90;32.50
22383;DHT22;11359;45.802;13.530;2023-02-28T02:07:31;11.90;32.60
22383;DHT22;11359;45.802;13.530;2023-02-28T02:10:11;11.90;32.70
22383;DHT22;11359;45.802;13.530;2023-02-28T02:13:05;11.80;32.70
22383;DHT22;11359;45.802;13.530;2023-02-28T02:18:47;11.70;32.80
22383;DHT22;11359;45.802;13.530;2023-02-28T02:32:58;11.60;33.10
22383;DHT22;11359;45.802;13.530;2023-02-28T02:37:56;11.50;33.10
22383;DHT22;11359;45.802;13.530;2023-02-28T02:40:33;11.40;33.20
22383;DHT22;11359;45.802;13.530;2023-02-28T02:43:14;11.40;33.30
22383;DHT22;11359;45.802;13.530;2023-02-28T02:45:49;11.40;33.40
22383;DHT22;11359;45.802;13.530;2023-02-28T02:48:16;11.40;33.40
22383;DHT22;11359;45.802;13.530;2023-02-28T02:50:49;11.30;33.50
22383;DHT22;11359;45.802;13.530;2023-02-28T02:53:19;11.30;34.20
22383;DHT22;11359;45.802;13.530;2023-02-28T02:55:48;11.30;33.50
22383;DHT22;11359;45.802;13.530;2023-02-28T02:58:22;11.30;33.70
22383;DHT22;11359;45.802;13.530;2023-02-28T03:00:54;11.20;33.70
22383;DHT22;11359;45.802;13.530;2023-02-28T03:03:21;11.20;33.80
22383;DHT22;11359;45.802;13.530;2023-02-28T03:05:55;11.20;33.90
22383;DHT22;11359;45.802;13.530;2023-02-28T03:08:21;11.10;33.80
22383;DHT22;11359;45.802;13.530;2023-02-28T03:10:57;11.10;33.90
22383;DHT22;11359;45.802;13.530;2023-02-28T03:27:20;11.00;34.20
22383;DHT22;11359;45.802;13.530;2023-02-28T03:35:34;10.90;34.30
22383;DHT22;11359;45.802;13.530;2023-02-28T03:38:54;10.80;34.50
22383;DHT22;11359;45.802;13.530;2023-02-28T03:41:16;10.80;34.60
22383;DHT22;11359;45.802;13.530;2023-02-28T03:43:48;10.80;34.50
22383;DHT22;11359;45.802;13.530;2023-02-28T03:46:19;10.80;34.60
22383;DHT22;11359;45.802;13.530;2023-02-28T03:48:55;10.80;34.80
22383;DHT22;11359;45.802;13.530;2023-02-28T03:51:23;10.70;34.80
22383;DHT22;11359;45.802;13.530;2023-02-28T03:53:56;10.70;34.80
22383;DHT22;11359;45.802;13.530;2023-02-28T03:56:30;10.70;35.00
22383;DHT22;11359;45.802;13.530;2023-02-28T03:59:10;10.70;34.90
22383;DHT22;11359;45.802;13.530;2023-02-28T04:01:43;10.70;34.90
22383;DHT22;11359;45.802;13.530;2023-02-28T04:04:14;10.60;35.00
22383;DHT22;11359;45.802;13.530;2023-02-28T04:06:41;10.60;35.20
22383;DHT22;11359;45.802;13.530;2023-02-28T04:09:09;10.60;35.20
22383;DHT22;11359;45.802;13.530;2023-02-28T04:14:05;10.50;35.10
22383;DHT22;11359;45.802;13.530;2023-02-28T04:16:32;10.50;35.10
22383;DHT22;11359;45.802;13.530;2023-02-28T04:18:58;10.50;35.30
22383;DHT22;11359;45.802;13.530;2023-02-28T04:21:48;10.50;35.30
22383;DHT22;11359;45.802;13.530;2023-02-28T04:24:20;10.40;35.30
22383;DHT22;11359;45.802;13.530;2023-02-28T04:26:47;10.40;35.60
22383;DHT22;11359;45.802;13.530;2023-02-28T04:29:18;10.40;35.50
22383;DHT22;11359;45.802;13.530;2023-02-28T04:31:44;10.30;35.50
22383;DHT22;11359;45.802;13.530;2023-02-28T04:34:10;10.30;35.70
22383;DHT22;11359;45.802;13.530;2023-02-28T04:36:37;10.30;35.80
22383;DHT22;11359;45.802;13.530;2023-02-28T04:39:03;10.30;35.80
22383;DHT22;11359;45.802;13.530;2023-02-28T04:41:29;10.30;35.80
22383;DHT22;11359;45.802;13.530;2023-02-28T04:43:56;10.30;35.90
22383;DHT22;11359;45.802;13.530;2023-02-28T04:46:22;10.20;35.80
22383;DHT22;11359;45.802;13.530;2023-02-28T04:48:48;10.20;36.00
22383;DHT22;11359;45.802;13.530;2023-02-28T04:51:15;10.20;35.90
22383;DHT22;11359;45.802;13.530;2023-02-28T04:53:42;10.20;36.00
22383;DHT22;11359;45.802;13.530;2023-02-28T04:56:12;10.20;36.00
22383;DHT22;11359;45.802;13.530;2023-02-28T04:58:38;10.20;36.10
22383;DHT22;11359;45.802;13.530;2023-02-28T05:01:06;10.20;36.20
22383;DHT22;11359;45.802;13.530;2023-02-28T05:03:41;10.20;36.20
22383;DHT22;11359;45.802;13.530;2023-02-28T05:06:08;10.20;36.30
22383;DHT22;11359;45.802;13.530;2023-02-28T05:08:34;10.20;36.40
22383;DHT22;11359;45.802;13.530;2023-02-28T05:11:01;10.20;36.30
22383;DHT22;11359;45.802;13.530;2023-02-28T05:13:27;10.10;36.30
22383;DHT22;11359;45.802;13.530;2023-02-28T05:15:53;10.10;36.40
22383;DHT22;11359;45.802;13.530;2023-02-28T05:18:19;10.10;36.50
22383;DHT22;11359;45.802;13.530;2023-02-28T05:20:48;10.10;36.50
22383;DHT22;11359;45.802;13.530;2023-02-28T05:23:14;10.10;36.90
22383;DHT22;11359;45.802;13.530;2023-02-28T05:25:41;10.20;36.80
22383;DHT22;11359;45.802;13.530;2023-02-28T05:28:07;10.20;36.70
22383;DHT22;11359;45.802;13.530;2023-02-28T05:30:33;10.20;36.80
22383;DHT22;11359;45.802;13.530;2023-02-28T05:32:59;10.20;36.90
22383;DHT22;11359;45.802;13.530;2023-02-28T05:35:25;10.20;36.90
22383;DHT22;11359;45.802;13.530;2023-02-28T05:37:51;10.30;36.90
22383;DHT22;11359;45.802;13.530;2023-02-28T05:40:16;10.20;36.90
22383;DHT22;11359;45.802;13.530;2023-02-28T05:42:42;10.30;37.00
22383;DHT22;11359;45.802;13.530;2023-02-28T05:45:09;10.30;37.30
22383;DHT22;11359;45.802;13.530;2023-02-28T05:47:35;10.30;37.30
22383;DHT22;11359;45.802;13.530;2023-02-28T05:50:01;10.30;37.10
22383;DHT22;11359;45.802;13.530;2023-02-28T05:52:30;10.40;37.10
22383;DHT22;11359;45.802;13.530;2023-02-28T05:54:56;10.40;37.20
22383;DHT22;11359;45.802;13.530;2023-02-28T05:57:22;10.40;37.20
22383;DHT22;11359;45.802;13.530;2023-02-28T05:59:48;10.50;37.30
22383;DHT22;11359;45.802;13.530;2023-02-28T06:02:15;10.50;37.30
22383;DHT22;11359;45.802;13.530;2023-02-28T06:04:42;10.60;37.30
22383;DHT22;11359;45.802;13.530;2023-02-28T06:07:08;10.60;37.20
22383;DHT22;11359;45.802;13.530;2023-02-28T06:09:35;10.70;37.30
22383;DHT22;11359;45.802;13.530;2023-02-28T06:12:02;10.80;37.30
22383;DHT22;11359;45.802;13.530;2023-02-28T06:14:31;10.80;37.20
22383;DHT22;11359;45.802;13.530;2023-02-28T06:16:58;10.90;37.30
22383;DHT22;11359;45.802;13.530;2023-02-28T06:19:24;11.00;37.30
22383;DHT22;11359;45.802;13.530;2023-02-28T06:21:52;11.00;37.30
22383;DHT22;11359;45.802;13.530;2023-02-28T06:24:19;11.10;37.30
22383;DHT22;11359;45.802;13.530;2023-02-28T06:26:45;11.20;37.40
22383;DHT22;11359;45.802;13.530;2023-02-28T06:29:11;11.20;37.20
22383;DHT22;11359;45.802;13.530;2023-02-28T06:31:37;11.30;37.50
22383;DHT22;11359;45.802;13.530;2023-02-28T06:34:04;11.40;37.10
22383;DHT22;11359;45.802;13.530;2023-02-28T06:36:31;11.50;37.00
22383;DHT22;11359;45.802;13.530;2023-02-28T06:38:57;11.50;37.00
22383;DHT22;11359;45.802;13.530;2023-02-28T06:41:24;11.60;37.00
22383;DHT22;11359;45.802;13.530;2023-02-28T06:43:51;11.70;37.00
22383;DHT22;11359;45.802;13.530;2023-02-28T06:46:17;11.80;37.00
22383;DHT22;11359;45.802;13.530;2023-02-28T06:48:44;11.90;36.90
22383;DHT22;11359;45.802;13.530;2023-02-28T06:51:16;11.90;37.40
22383;DHT22;11359;45.802;13.530;2023-02-28T06:53:43;12.00;36.70
22383;DHT22;11359;45.802;13.530;2023-02-28T06:56:14;12.10;36.60
22383;DHT22;11359;45.802;13.530;2023-02-28T06:58:40;12.20;36.60
22383;DHT22;11359;45.802;13.530;2023-02-28T07:01:08;12.30;36.50
22383;DHT22;11359;45.802;13.530;2023-02-28T07:03:35;12.30;36.40
22383;DHT22;11359;45.802;13.530;2023-02-28T07:06:01;12.40;36.40
22383;DHT22;11359;45.802;13.530;2023-02-28T07:08:27;12.40;36.30
22383;DHT22;11359;45.802;13.530;2023-02-28T07:10:56;12.50;36.20
22383;DHT22;11359;45.802;13.530;2023-02-28T07:13:22;12.50;36.10
22383;DHT22;11359;45.802;13.530;2023-02-28T07:15:57;12.60;36.10
22383;DHT22;11359;45.802;13.530;2023-02-28T07:18:23;12.60;36.00
22383;DHT22;11359;45.802;13.530;2023-02-28T07:20:49;12.70;36.00
22383;DHT22;11359;45.802;13.530;2023-02-28T07:23:15;12.70;35.90
22383;DHT22;11359;45.802;13.530;2023-02-28T07:25:41;12.80;35.80
22383;DHT22;11359;45.802;13.530;2023-02-28T07:28:07;12.80;35.80
22383;DHT22;11359;45.802;13.530;2023-02-28T07:30:33;12.80;35.60
22383;DHT22;11359;45.802;13.530;2023-02-28T07:32:58;12.80;35.60
22383;DHT22;11359;45.802;13.530;2023-02-28T07:35:25;12.90;35.50
22383;DHT22;11359;45.802;13.530;2023-02-28T07:37:51;12.90;35.40
22383;DHT22;11359;45.802;13.530;2023-02-28T07:40:17;12.90;35.40
22383;DHT22;11359;45.802;13.530;2023-02-28T07:42:44;12.90;35.40
22383;DHT22;11359;45.802;13.530;2023-02-28T07:45:10;12.80;35.40
22383;DHT22;11359;45.802;13.530;2023-02-28T07:47:41;12.90;35.50
22383;DHT22;11359;45.802;13.530;2023-02-28T07:50:09;12.90;35.50
22383;DHT22;11359;45.802;13.530;2023-02-28T07:52:37;12.90;35.40
22383;DHT22;11359;45.802;13.530;2023-02-28T07:55:07;12.90;35.40
22383;DHT22;11359;45.802;13.530;2023-02-28T07:57:33;12.90;35.40
22383;DHT22;11359;45.802;13.530;2023-02-28T07:59:59;12.90;35.40
22383;DHT22;11359;45.802;13.530;2023-02-28T08:02:25;13.00;35.50
22383;DHT22;11359;45.802;13.530;2023-02-28T08:04:50;13.00;35.50
22383;DHT22;11359;45.802;13.530;2023-02-28T08:07:17;13.00;35.30
22383;DHT22;11359;45.802;13.530;2023-02-28T08:09:44;13.00;35.30
22383;DHT22;11359;45.802;13.530;2023-02-28T08:12:10;13.00;35.30
22383;DHT22;11359;45.802;13.530;2023-02-28T08:14:36;13.00;35.30
22383;DHT22;11359;45.802;13.530;2023-02-28T08:17:03;12.90;35.20
22383;DHT22;11359;45.802;13.530;2023-02-28T08:19:29;12.90;35.20
22383;DHT22;11359;45.802;13.530;2023-02-28T08:21:56;12.90;35.20
22383;DHT22;11359;45.802;13.530;2023-02-28T08:24:22;12.90;35.30
22383;DHT22;11359;45.802;13.530;2023-02-28T08:26:48;12.90;35.20
22383;DHT22;11359;45.802;13.530;2023-02-28T08:29:13;12.90;35.10
22383;DHT22;11359;45.802;13.530;2023-02-28T08:31:39;12.90;35.20
22383;DHT22;11359;45.802;13.530;2023-02-28T08:34:09;12.90;35.20
22383;DHT22;11359;45.802;13.530;2023-02-28T08:36:36;12.90;35.40
22383;DHT22;11359;45.802;13.530;2023-02-28T08:39:02;12.90;35.30
22383;DHT22;11359;45.802;13.530;2023-02-28T08:41:29;12.90;35.30
22383;DHT22;11359;45.802;13.530;2023-02-28T08:43:55;12.80;35.30
22383;DHT22;11359;45.802;13.530;2023-02-28T08:46:21;12.80;35.40
22383;DHT22;11359;45.802;13.530;2023-02-28T08:48:46;12.80;35.30
22383;DHT22;11359;45.802;13.530;2023-02-28T08:51:16;12.80;35.40
22383;DHT22;11359;45.802;13.530;2023-02-28T08:53:44;12.80;35.40
22383;DHT22;11359;45.802;13.530;2023-02-28T08:56:13;12.80;35.50
22383;DHT22;11359;45.802;13.530;2023-02-28T08:58:40;12.80;35.50
22383;DHT22;11359;45.802;13.530;2023-02-28T09:01:11;12.80;35.50
22383;DHT22;11359;45.802;13.530;2023-02-28T09:03:37;12.90;35.50
22383;DHT22;11359;45.802;13.530;2023-02-28T09:06:04;12.80;35.50
22383;DHT22;11359;45.802;13.530;2023-02-28T09:08:30;12.80;35.40
22383;DHT22;11359;45.802;13.530;2023-02-28T09:10:57;12.80;35.50
22383;DHT22;11359;45.802;13.530;2023-02-28T09:13:24;12.80;35.50
22383;DHT22;11359;45.802;13.530;2023-02-28T09:15:50;12.80;35.60
22383;DHT22;11359;45.802;13.530;2023-02-28T09:18:16;12.80;35.60
22383;DHT22;11359;45.802;13.530;2023-02-28T09:20:43;12.80;35.60
22383;DHT22;11359;45.802;13.530;2023-02-28T09:23:11;12.80;35.60
22383;DHT22;11359;45.802;13.530;2023-02-28T09:25:37;12.80;35.60
22383;DHT22;11359;45.802;13.530;2023-02-28T09:28:04;12.80;35.70
22383;DHT22;11359;45.802;13.530;2023-02-28T09:30:30;12.80;35.70
22383;DHT22;11359;45.802;13.530;2023-02-28T09:32:56;12.80;35.80
22383;DHT22;11359;45.802;13.530;2023-02-28T09:35:23;12.80;35.80
22383;DHT22;11359;45.802;13.530;2023-02-28T09:37:50;12.80;35.80
22383;DHT22;11359;45.802;13.530;2023-02-28T09:40:21;12.80;35.80
22383;DHT22;11359;45.802;13.530;2023-02-28T09:42:50;12.80;35.80
22383;DHT22;11359;45.802;13.530;2023-02-28T09:45:29;12.80;35.80
22383;DHT22;11359;45.802;13.530;2023-02-28T09:48:02;12.80;36.50
22383;DHT22;11359;45.802;13.530;2023-02-28T09:50:41;12.80;35.80
22383;DHT22;11359;45.802;13.530;2023-02-28T09:53:22;12.80;35.80
22383;DHT22;11359;45.802;13.530;2023-02-28T09:55:56;12.80;35.90
22383;DHT22;11359;45.802;13.530;2023-02-28T09:58:41;12.80;35.90
22383;DHT22;11359;45.802;13.530;2023-02-28T10:01:36;12.70;35.80
22383;DHT22;11359;45.802;13.530;2023-02-28T10:04:35;12.70;35.80
22383;DHT22;11359;45.802;13.530;2023-02-28T10:09:54;12.70;35.90
22383;DHT22;11359;45.802;13.530;2023-02-28T10:12:20;12.70;36.00
22383;DHT22;11359;45.802;13.530;2023-02-28T10:14:50;12.70;36.00
22383;DHT22;11359;45.802;13.530;2023-02-28T10:17:21;12.70;36.10
22383;DHT22;11359;45.802;13.530;2023-02-28T10:24:53;12.70;36.20
22383;DHT22;11359;45.802;13.530;2023-02-28T10:27:24;12.70;36.20
22383;DHT22;11359;45.802;13.530;2023-02-28T10:29:56;12.70;36.20
22383;DHT22;11359;45.802;13.530;2023-02-28T10:32:26;12.70;36.20
22383;DHT22;11359;45.802;13.530;2023-02-28T10:34:57;12.70;36.20
22383;DHT22;11359;45.802;13.530;2023-02-28T10:37:23;12.70;36.20
22383;DHT22;11359;45.802;13.530;2023-02-28T10:39:48;12.70;36.30
22383;DHT22;11359;45.802;13.530;2023-02-28T10:42:26;12.70;36.40
22383;DHT22;11359;45.802;13.530;2023-02-28T10:50:43;12.80;36.30
22383;DHT22;11359;45.802;13.530;2023-02-28T10:55:36;12.80;36.30
22383;DHT22;11359;45.802;13.530;2023-02-28T10:58:02;12.80;36.30
22383;DHT22;11359;45.802;13.530;2023-02-28T11:00:34;12.80;36.30
22383;DHT22;11359;45.802;13.530;2023-02-28T11:03:00;12.80;36.30
22383;DHT22;11359;45.802;13.530;2023-02-28T11:07:56;12.70;36.30
22383;DHT22;11359;45.802;13.530;2023-02-28T11:10:26;12.70;36.30
22383;DHT22;11359;45.802;13.530;2023-02-28T11:12:55;12.80;36.40
22383;DHT22;11359;45.802;13.530;2023-02-28T11:15:27;12.80;36.40
22383;DHT22;11359;45.802;13.530;2023-02-28T11:17:56;12.70;36.40
22383;DHT22;11359;45.802;13.530;2023-02-28T11:20:25;12.70;36.30
22383;DHT22;11359;45.802;13.530;2023-02-28T11:22:51;12.80;36.30
22383;DHT22;11359;45.802;13.530;2023-02-28T11:25:22;12.80;36.30
22383;DHT22;11359;45.802;13.530;2023-02-28T11:27:51;12.80;36.30
22383;DHT22;11359;45.802;13.530;2023-02-28T11:30:37;12.80;36.30
22383;DHT22;11359;45.802;13.530;2023-02-28T11:36:13;12.80;36.30
22383;DHT22;11359;45.802;13.530;2023-02-28T11:38:40;12.80;36.40
22383;DHT22;11359;45.802;13.530;2023-02-28T11:41:25;12.80;36.50
22383;DHT22;11359;45.802;13.530;2023-02-28T11:44:05;12.80;36.50
22383;DHT22;11359;45.802;13.530;2023-02-28T11:55:51;12.90;36.50
22383;DHT22;11359;45.802;13.530;2023-02-28T11:58:31;12.90;36.50
22383;DHT22;11359;45.802;13.530;2023-02-28T12:04:08;13.00;36.70
22383;DHT22;11359;45.802;13.530;2023-02-28T12:06:57;13.10;36.70
22383;DHT22;11359;45.802;13.530;2023-02-28T12:09:51;13.10;36.50
22383;DHT22;11359;45.802;13.530;2023-02-28T12:12:38;13.10;36.40
22383;DHT22;11359;45.802;13.530;2023-02-28T12:21:08;13.30;36.50
22383;DHT22;11359;45.802;13.530;2023-02-28T12:23:58;13.30;36.50
22383;DHT22;11359;45.802;13.530;2023-02-28T12:26:41;13.40;36.10
22383;DHT22;11359;45.802;13.530;2023-02-28T12:29:30;13.50;36.10
22383;DHT22;11359;45.802;13.530;2023-02-28T12:32:14;13.50;36.00
22383;DHT22;11359;45.802;13.530;2023-02-28T12:34:46;13.60;36.10
22383;DHT22;11359;45.802;13.530;2023-02-28T12:37:32;13.70;36.10
22383;DHT22;11359;45.802;13.530;2023-02-28T12:40:08;13.70;36.10
22383;DHT22;11359;45.802;13.530;2023-02-28T12:42:46;13.80;36.00
22383;DHT22;11359;45.802;13.530;2023-02-28T12:47:50;14.00;36.10
22383;DHT22;11359;45.802;13.530;2023-02-28T12:50:18;14.10;36.00
22383;DHT22;11359;45.802;13.530;2023-02-28T13:00:38;14.40;35.50
22383;DHT22;11359;45.802;13.530;2023-02-28T13:05:55;14.60;35.30
22383;DHT22;11359;45.802;13.530;2023-02-28T13:08:48;14.60;35.20
22383;DHT22;11359;45.802;13.530;2023-02-28T13:11:31;14.70;35.20
22383;DHT22;11359;45.802;13.530;2023-02-28T13:14:03;14.80;35.00
22383;DHT22;11359;45.802;13.530;2023-02-28T13:16:54;14.90;35.00
22383;DHT22;11359;45.802;13.530;2023-02-28T13:19:22;14.90;34.60
22383;DHT22;11359;45.802;13.530;2023-02-28T13:21:50;15.00;34.50
22383;DHT22;11359;45.802;13.530;2023-02-28T13:24:48;15.10;34.50
22383;DHT22;11359;45.802;13.530;2023-02-28T13:29:42;15.20;34.20
22383;DHT22;11359;45.802;13.530;2023-02-28T13:39:54;15.30;33.40
22383;DHT22;11359;45.802;13.530;2023-02-28T13:50:23;15.50;33.40
22383;DHT22;11359;45.802;13.530;2023-02-28T14:06:52;15.80;32.60
22383;DHT22;11359;45.802;13.530;2023-02-28T14:09:32;15.80;32.70
22383;DHT22;11359;45.802;13.530;2023-02-28T14:15:03;15.90;32.20
22383;DHT22;11359;45.802;13.530;2023-02-28T14:17:31;16.00;32.20
22383;DHT22;11359;45.802;13.530;2023-02-28T14:19:57;16.00;32.30
22383;DHT22;11359;45.802;13.530;2023-02-28T14:22:47;16.10;32.20
22383;DHT22;11359;45.802;13.530;2023-02-28T14:25:31;16.10;32.40
22383;DHT22;11359;45.802;13.530;2023-02-28T14:33:27;16.40;32.40
22383;DHT22;11359;45.802;13.530;2023-02-28T14:36:17;16.40;32.00
22383;DHT22;11359;45.802;13.530;2023-02-28T14:38:56;16.60;31.90
22383;DHT22;11359;45.802;13.530;2023-02-28T14:41:29;16.60;31.50
22383;DHT22;11359;45.802;13.530;2023-02-28T14:43:59;16.70;31.40
22383;DHT22;11359;45.802;13.530;2023-02-28T14:46:38;16.70;31.30
22383;DHT22;11359;45.802;13.530;2023-02-28T14:49:05;16.80;31.50
22383;DHT22;11359;45.802;13.530;2023-02-28T14:51:32;16.90;30.70
22383;DHT22;11359;45.802;13.530;2023-02-28T14:54:00;16.90;30.80
22383;DHT22;11359;45.802;13.530;2023-02-28T14:56:37;16.90;30.30
22383;DHT22;11359;45.802;13.530;2023-02-28T14:59:04;17.00;30.90
22383;DHT22;11359;45.802;13.530;2023-02-28T15:01:30;17.00;31.00
22383;DHT22;11359;45.802;13.530;2023-02-28T15:04:06;17.10;30.90
22383;DHT22;11359;45.802;13.530;2023-02-28T15:06:41;17.10;30.80
22383;DHT22;11359;45.802;13.530;2023-02-28T15:09:15;17.10;30.30
22383;DHT22;11359;45.802;13.530;2023-02-28T15:11:44;17.10;30.10
22383;DHT22;11359;45.802;13.530;2023-02-28T15:14:16;17.10;30.30
22383;DHT22;11359;45.802;13.530;2023-02-28T15:16:44;17.20;30.10
22383;DHT22;11359;45.802;13.530;2023-02-28T15:19:20;17.10;30.10
22383;DHT22;11359;45.802;13.530;2023-02-28T15:21:50;17.20;30.10
22383;DHT22;11359;45.802;13.530;2023-02-28T15:24:19;17.20;30.20
22383;DHT22;11359;45.802;13.530;2023-02-28T15:26:54;17.20;30.00
22383;DHT22;11359;45.802;13.530;2023-02-28T15:29:23;17.20;29.90
22383;DHT22;11359;45.802;13.530;2023-02-28T15:32:01;17.20;29.80
22383;DHT22;11359;45.802;13.530;2023-02-28T15:34:41;17.20;30.60
22383;DHT22;11359;45.802;13.530;2023-02-28T15:42:38;17.30;29.80
22383;DHT22;11359;45.802;13.530;2023-02-28T15:45:04;17.40;29.70
22383;DHT22;11359;45.802;13.530;2023-02-28T15:47:30;17.30;29.80
22383;DHT22;11359;45.802;13.530;2023-02-28T15:50:02;17.30;29.10
22383;DHT22;11359;45.802;13.530;2023-02-28T15:52:39;17.30;29.40
22383;DHT22;11359;45.802;13.530;2023-02-28T15:57:39;17.30;29.20
22383;DHT22;11359;45.802;13.530;2023-02-28T16:00:09;17.30;29.20
22383;DHT22;11359;45.802;13.530;2023-02-28T16:02:37;17.40;29.30
22383;DHT22;11359;45.802;13.530;2023-02-28T16:07:31;17.30;29.00
22383;DHT22;11359;45.802;13.530;2023-02-28T16:09:57;17.30;29.10
22383;DHT22;11359;45.802;13.530;2023-02-28T16:12:27;17.30;28.50
22383;DHT22;11359;45.802;13.530;2023-02-28T16:14:55;17.30;28.80
22383;DHT22;11359;45.802;13.530;2023-02-28T16:17:34;17.30;28.40
22383;DHT22;11359;45.802;13.530;2023-02-28T16:20:00;17.30;28.20
22383;DHT22;11359;45.802;13.530;2023-02-28T16:22:26;17.20;28.30
22383;DHT22;11359;45.802;13.530;2023-02-28T16:24:52;17.20;28.40
22383;DHT22;11359;45.802;13.530;2023-02-28T16:27:33;17.20;28.40
22383;DHT22;11359;45.802;13.530;2023-02-28T16:30:01;17.10;28.10
22383;DHT22;11359;45.802;13.530;2023-02-28T16:32:28;17.00;28.00
22383;DHT22;11359;45.802;13.530;2023-02-28T16:34:54;17.10;28.30
22383;DHT22;11359;45.802;13.530;2023-02-28T16:37:20;17.00;28.40
22383;DHT22;11359;45.802;13.530;2023-02-28T16:39:45;17.00;28.50
22383;DHT22;11359;45.802;13.530;2023-02-28T16:42:20;17.00;28.60
22383;DHT22;11359;45.802;13.530;2023-02-28T16:44:47;16.90;28.50
22383;DHT22;11359;45.802;13.530;2023-02-28T16:47:13;16.90;28.60
22383;DHT22;11359;45.802;13.530;2023-02-28T16:49:39;16.90;28.60
22383;DHT22;11359;45.802;13.530;2023-02-28T16:52:07;16.90;28.70
22383;DHT22;11359;45.802;13.530;2023-02-28T16:54:33;16.90;28.80
22383;DHT22;11359;45.802;13.530;2023-02-28T16:56:59;16.90;28.80
22383;DHT22;11359;45.802;13.530;2023-02-28T16:59:26;16.90;28.90
22383;DHT22;11359;45.802;13.530;2023-02-28T17:01:53;16.90;28.70
22383;DHT22;11359;45.802;13.530;2023-02-28T17:04:19;16.90;28.50
22383;DHT22;11359;45.802;13.530;2023-02-28T17:06:44;16.90;28.60
22383;DHT22;11359;45.802;13.530;2023-02-28T17:09:16;16.80;28.50
22383;DHT22;11359;45.802;13.530;2023-02-28T17:11:46;16.80;28.60
22383;DHT22;11359;45.802;13.530;2023-02-28T17:14:12;16.80;28.50
22383;DHT22;11359;45.802;13.530;2023-02-28T17:16:39;16.80;28.50
22383;DHT22;11359;45.802;13.530;2023-02-28T17:19:13;16.80;28.50
22383;DHT22;11359;45.802;13.530;2023-02-28T17:21:40;16.70;28.20
22383;DHT22;11359;45.802;13.530;2023-02-28T17:24:08;16.70;28.30
22383;DHT22;11359;45.802;13.530;2023-02-28T17:26:36;16.70;28.60
22383;DHT22;11359;45.802;13.530;2023-02-28T17:29:01;16.70;28.60
22383;DHT22;11359;45.802;13.530;2023-02-28T17:31:27;16.70;28.40
22383;DHT22;11359;45.802;13.530;2023-02-28T17:33:56;16.70;28.50
22383;DHT22;11359;45.802;13.530;2023-02-28T17:36:25;16.70;28.50
22383;DHT22;11359;45.802;13.530;2023-02-28T17:38:52;16.70;28.50
22383;DHT22;11359;45.802;13.530;2023-02-28T17:41:18;16.60;28.60
22383;DHT22;11359;45.802;13.530;2023-02-28T17:43:44;16.70;28.50
22383;DHT22;11359;45.802;13.530;2023-02-28T17:46:18;16.70;28.70
22383;DHT22;11359;45.802;13.530;2023-02-28T17:48:50;16.70;28.60
22383;DHT22;11359;45.802;13.530;2023-02-28T17:51:17;16.70;28.80
22383;DHT22;11359;45.802;13.530;2023-02-28T17:53:43;16.70;28.80
22383;DHT22;11359;45.802;13.530;2023-02-28T17:56:17;16.70;28.60